Aneth, Utah
Current Conditions -  °F | °C
As of 12:55 PM on Sunday 23 Nov 2014 (Local Time) from KBDG Reporting Station
Clear Clear  
Wind Chill: -2°   Ceiling: Unl
Heat Index:   Visibility: 10mi
Dew Point: -12°   Wind: 28mph
Humidity: 31%   Direction: 310°NW
Pressure: 30.06"   Gusts: 37mph
Location:  37.22°N, 109.19°W
Report Text: KBDG 231955Z AUTO 31024G32KT 10SM CLR 05/M11 A3006 RMK AO1 T00461115
Loading
Personal Weather Stations






























Interactive Weather Map New forecast layout! Learn more

10-Day Weather Forecast

Advertisements
Track Severe Weather on mobile